createdAt,value
2019-06-27T00:01:04.738Z,94274.19
2019-06-27T00:03:33.268Z,94269.87
2019-06-27T00:06:01.503Z,94271.98
2019-06-27T00:08:29.710Z,94269.05
2019-06-27T00:10:58.023Z,94273.73
2019-06-27T00:13:26.219Z,94271.42
2019-06-27T00:15:54.758Z,94274.72
2019-06-27T00:18:23.382Z,94275.66
2019-06-27T00:20:53.166Z,94272.23
2019-06-27T00:23:21.814Z,94269.35
2019-06-27T00:25:50.424Z,94270.95
2019-06-27T00:28:18.983Z,94268.52
2019-06-27T00:30:47.612Z,94261.66
2019-06-27T00:33:15.957Z,94260.33
2019-06-27T00:35:44.531Z,94261.45
2019-06-27T00:38:12.807Z,94262.13
2019-06-27T00:40:40.977Z,94259.16
2019-06-27T00:43:09.458Z,94259.98
2019-06-27T00:45:37.709Z,94261.30
2019-06-27T00:48:05.281Z,94266.30
2019-06-27T00:50:33.216Z,94259.91
2019-06-27T00:53:01.747Z,94263.16
2019-06-27T00:55:29.588Z,94251.86
2019-06-27T00:57:58.244Z,94257.52
2019-06-27T01:00:26.837Z,94251.67
2019-06-27T01:02:55.123Z,94252.83
2019-06-27T01:05:22.916Z,94255.16
2019-06-27T01:07:51.166Z,94252.75
2019-06-27T01:10:19.358Z,94255.20
2019-06-27T01:12:47.281Z,94257.92
2019-06-27T01:15:15.400Z,94258.44
2019-06-27T01:17:43.988Z,94259.22
2019-06-27T01:20:13.367Z,94265.05
2019-06-27T01:22:42.001Z,94266.16
2019-06-27T01:25:09.543Z,94262.94
2019-06-27T01:27:38.142Z,94259.88
2019-06-27T01:30:07.120Z,94263.38
2019-06-27T01:32:35.718Z,94265.44
2019-06-27T01:35:04.470Z,94265.78
2019-06-27T01:37:32.779Z,94260.57
2019-06-27T01:40:00.678Z,94259.95
2019-06-27T01:42:28.942Z,94260.55
2019-06-27T01:45:01.834Z,94256.03
2019-06-27T01:47:30.445Z,94260.75
2019-06-27T01:49:58.935Z,94258.94
2019-06-27T01:52:27.097Z,94264.00
2019-06-27T01:54:54.564Z,94260.17
2019-06-27T01:57:22.492Z,94265.30
2019-06-27T01:59:51.123Z,94264.28
2019-06-27T02:02:19.318Z,94262.20
2019-06-27T02:04:47.572Z,94263.63
2019-06-27T02:07:15.784Z,94262.88
2019-06-27T02:09:44.324Z,94264.27
2019-06-27T02:12:12.114Z,94271.25
2019-06-27T02:14:40.383Z,94268.73
2019-06-27T02:17:08.920Z,94267.66
2019-06-27T02:19:37.265Z,94266.73
2019-06-27T02:22:04.818Z,94268.03
2019-06-27T02:24:32.775Z,94271.91
2019-06-27T02:27:01.013Z,94270.26
2019-06-27T02:29:29.579Z,94273.06
2019-06-27T02:31:58.089Z,94272.91
2019-06-27T02:34:26.645Z,94278.62
2019-06-27T02:36:55.370Z,94271.94
2019-06-27T02:39:23.944Z,94267.81
2019-06-27T02:41:51.729Z,94272.38
2019-06-27T02:44:20.314Z,94272.66
2019-06-27T02:46:48.629Z,94271.91
2019-06-27T02:49:16.864Z,94265.01
2019-06-27T02:51:44.777Z,94265.64
2019-06-27T02:54:12.713Z,94258.25
2019-06-27T02:56:41.390Z,94262.44
2019-06-27T02:59:09.304Z,94262.83
2019-06-27T03:01:37.866Z,94257.92
2019-06-27T03:04:05.786Z,94264.98
2019-06-27T03:06:34.039Z,94258.11
2019-06-27T03:09:02.630Z,94255.81
2019-06-27T03:11:30.992Z,94257.86
2019-06-27T03:13:59.196Z,94254.62
2019-06-27T03:16:27.781Z,94255.36
2019-06-27T03:18:56.169Z,94252.30
2019-06-27T03:21:24.451Z,94257.03
2019-06-27T03:23:52.903Z,94254.98
2019-06-27T03:26:21.115Z,94252.56
2019-06-27T03:28:53.174Z,94258.16
2019-06-27T03:31:19.521Z,94267.72
2019-06-27T03:33:48.053Z,94269.32
2019-06-27T03:36:16.290Z,94274.41
2019-06-27T03:38:44.492Z,94271.43
2019-06-27T03:41:13.117Z,94271.81
2019-06-27T03:43:41.639Z,94268.84
2019-06-27T03:46:09.926Z,94265.41
2019-06-27T03:48:38.528Z,94272.39
2019-06-27T03:51:06.722Z,94272.66
2019-06-27T03:53:35.277Z,94265.16
2019-06-27T03:56:03.558Z,94268.04
2019-06-27T03:58:31.439Z,94271.95
2019-06-27T04:00:58.974Z,94275.19
2019-06-27T04:03:26.551Z,94281.46
2019-06-27T04:05:54.450Z,94279.52
2019-06-27T04:08:23.033Z,94280.07
2019-06-27T04:10:51.669Z,94280.94
2019-06-27T04:13:19.501Z,94281.77
2019-06-27T04:15:48.073Z,94283.54
2019-06-27T04:18:16.682Z,94284.09
2019-06-27T04:20:44.542Z,94280.94
2019-06-27T04:23:12.755Z,94283.54
2019-06-27T04:25:41.006Z,94280.83
2019-06-27T04:28:08.600Z,94282.88
2019-06-27T04:30:36.752Z,94287.14
2019-06-27T04:33:05.032Z,94283.80
2019-06-27T04:35:33.731Z,94275.20
2019-06-27T04:38:01.903Z,94279.20
2019-06-27T04:40:30.395Z,94279.64
2019-06-27T04:42:58.624Z,94283.33
2019-06-27T04:45:27.255Z,94289.33
2019-06-27T04:47:55.194Z,94287.72
2019-06-27T04:50:23.830Z,94289.64
2019-06-27T04:52:52.112Z,94286.76
2019-06-27T04:55:20.086Z,94289.05
2019-06-27T04:57:48.003Z,94286.23
2019-06-27T05:00:24.756Z,94290.11
2019-06-27T05:02:53.163Z,94289.44
2019-06-27T05:05:21.741Z,94278.81
2019-06-27T05:07:49.675Z,94289.86
2019-06-27T05:10:18.265Z,94285.15
2019-06-27T05:12:46.786Z,94288.12
2019-06-27T05:15:14.942Z,94286.99
2019-06-27T05:17:43.115Z,94283.77
2019-06-27T05:20:11.477Z,94283.02
2019-06-27T05:22:40.009Z,94285.42
2019-06-27T05:25:07.734Z,94281.30
2019-06-27T05:27:35.931Z,94273.09
2019-06-27T05:30:09.230Z,94276.94
2019-06-27T05:32:33.619Z,94282.34
2019-06-27T05:35:02.260Z,94287.70
2019-06-27T05:37:30.641Z,94280.88
2019-06-27T05:39:58.231Z,94283.02
2019-06-27T05:42:26.485Z,94286.90
2019-06-27T05:44:55.015Z,94283.73
2019-06-27T05:47:23.626Z,94279.73
2019-06-27T05:49:51.518Z,94280.74
2019-06-27T05:52:20.079Z,94284.17
2019-06-27T05:54:47.972Z,94282.11
2019-06-27T05:57:16.157Z,94285.56
2019-06-27T05:59:44.770Z,94283.22
2019-06-27T06:02:13.319Z,94281.00
2019-06-27T06:04:41.921Z,94278.49
2019-06-27T06:07:09.801Z,94279.80
2019-06-27T06:09:37.325Z,94278.84
2019-06-27T06:12:05.528Z,94280.99
2019-06-27T06:14:34.049Z,94279.23
2019-06-27T06:17:02.415Z,94281.86
2019-06-27T06:19:30.277Z,94281.48
2019-06-27T06:21:58.865Z,94276.20
2019-06-27T06:24:27.031Z,94279.06
2019-06-27T06:26:55.564Z,94286.58
2019-06-27T06:29:23.392Z,94282.61
2019-06-27T06:31:52.109Z,94287.47
2019-06-27T06:34:20.227Z,94291.63
2019-06-27T06:36:48.132Z,94289.27
2019-06-27T06:39:15.978Z,94293.39
2019-06-27T06:41:44.681Z,94292.98
2019-06-27T06:44:12.172Z,94293.06
2019-06-27T06:46:40.151Z,94293.19
2019-06-27T06:49:08.011Z,94296.13
2019-06-27T06:51:36.293Z,94303.77
2019-06-27T06:54:04.594Z,94304.77
2019-06-27T06:56:33.221Z,94307.13
2019-06-27T06:59:01.858Z,94306.53
2019-06-27T07:01:30.074Z,94311.56
2019-06-27T07:03:58.805Z,94313.44
2019-06-27T07:06:27.269Z,94314.98
2019-06-27T07:08:55.928Z,94318.27
2019-06-27T07:11:24.594Z,94310.36
2019-06-27T07:13:53.199Z,94306.33
2019-06-27T07:16:21.682Z,94317.33
2019-06-27T07:18:50.367Z,94305.50
2019-06-27T07:21:18.252Z,94309.38
2019-06-27T07:23:46.770Z,94309.78
2019-06-27T07:26:15.398Z,94310.70
2019-06-27T07:28:43.787Z,94313.17
2019-06-27T07:31:17.838Z,94310.59
2019-06-27T07:33:42.835Z,94320.55
2019-06-27T07:36:11.112Z,94318.68
2019-06-27T07:38:39.135Z,94318.19
2019-06-27T07:41:06.959Z,94320.81
2019-06-27T07:43:35.505Z,94329.00
2019-06-27T07:46:03.408Z,94328.13
2019-06-27T07:48:31.285Z,94337.67
2019-06-27T07:50:59.512Z,94334.64
2019-06-27T07:53:27.805Z,94333.59
2019-06-27T07:55:55.731Z,94334.52
2019-06-27T07:58:24.374Z,94330.24
2019-06-27T08:00:52.611Z,94332.64
2019-06-27T08:03:21.382Z,94332.53
2019-06-27T08:05:49.691Z,94336.25
2019-06-27T08:08:17.956Z,94341.44
2019-06-27T08:10:46.205Z,94345.27
2019-06-27T08:13:14.976Z,94341.40
2019-06-27T08:15:43.411Z,94341.40
2019-06-27T08:18:12.025Z,94341.66
2019-06-27T08:20:40.793Z,94342.70
2019-06-27T08:23:09.160Z,94342.52
2019-06-27T08:25:37.488Z,94349.84
2019-06-27T08:28:05.385Z,94344.80
2019-06-27T08:30:33.315Z,94344.39
2019-06-27T08:33:01.143Z,94348.83
2019-06-27T08:35:33.422Z,94349.61
2019-06-27T08:38:00.439Z,94355.01
2019-06-27T08:40:28.967Z,94351.06
2019-06-27T08:42:56.810Z,94352.21
2019-06-27T08:45:24.881Z,94356.50
2019-06-27T08:47:52.722Z,94351.38
2019-06-27T08:50:21.446Z,94351.77
2019-06-27T08:52:49.385Z,94353.16
2019-06-27T08:55:17.723Z,94347.42
2019-06-27T08:57:45.574Z,94354.47
2019-06-27T09:00:13.310Z,94351.08
2019-06-27T09:02:41.282Z,94353.29
2019-06-27T09:05:09.155Z,94354.89
2019-06-27T09:07:37.888Z,94352.56
2019-06-27T09:10:06.542Z,94353.66
2019-06-27T09:12:34.406Z,94348.95
2019-06-27T09:15:02.663Z,94350.06
2019-06-27T09:17:31.021Z,94355.82
2019-06-27T09:19:59.780Z,94354.72
2019-06-27T09:22:28.140Z,94360.66
2019-06-27T09:24:56.440Z,94362.95
2019-06-27T09:27:24.624Z,94359.56
2019-06-27T09:29:53.214Z,94363.29
2019-06-27T09:32:25.951Z,94366.97
2019-06-27T09:34:51.946Z,94364.39
2019-06-27T09:37:20.508Z,94364.64
2019-06-27T09:39:48.711Z,94367.20
2019-06-27T09:42:17.291Z,94363.52
2019-06-27T09:44:45.665Z,94366.84
2019-06-27T09:47:14.209Z,94364.11
2019-06-27T09:49:42.551Z,94366.74
2019-06-27T09:52:10.718Z,94362.95
2019-06-27T09:54:38.908Z,94362.64
2019-06-27T09:57:07.167Z,94368.52
2019-06-27T09:59:35.758Z,94368.36
2019-06-27T10:02:04.063Z,94367.99
2019-06-27T10:04:31.985Z,94366.30
2019-06-27T10:07:00.307Z,94371.59
2019-06-27T10:09:29.063Z,94366.02
2019-06-27T10:11:56.678Z,94368.00
2019-06-27T10:14:25.168Z,94361.69
2019-06-27T10:16:53.146Z,94359.92
2019-06-27T10:19:21.163Z,94362.06
2019-06-27T10:21:49.486Z,94356.91
2019-06-27T10:24:17.776Z,94357.81
2019-06-27T10:26:45.325Z,94360.37
2019-06-27T10:29:13.268Z,94354.84
2019-06-27T10:31:41.707Z,94360.32
2019-06-27T10:34:10.409Z,94359.28
2019-06-27T10:36:39.078Z,94359.22
2019-06-27T10:39:06.261Z,94352.00
2019-06-27T10:41:34.157Z,94355.73
2019-06-27T10:44:02.492Z,94352.42
2019-06-27T10:46:30.780Z,94357.27
2019-06-27T10:48:59.063Z,94360.21
2019-06-27T10:51:27.647Z,94350.36
2019-06-27T10:53:56.249Z,94347.55
2019-06-27T10:56:24.519Z,94357.08
2019-06-27T10:58:52.823Z,94353.30
2019-06-27T11:01:21.410Z,94351.39
2019-06-27T11:03:49.730Z,94351.39
2019-06-27T11:06:17.619Z,94345.09
2019-06-27T11:08:46.230Z,94348.20
2019-06-27T11:11:14.105Z,94357.81
2019-06-27T11:13:57.975Z,94342.72
2019-06-27T11:16:13.233Z,94337.59
2019-06-27T11:18:41.778Z,94347.10
2019-06-27T11:21:13.668Z,94342.88
2019-06-27T11:23:40.223Z,94338.48
2019-06-27T11:26:09.640Z,94341.55
2019-06-27T11:28:38.432Z,94334.02
2019-06-27T11:31:07.033Z,94328.17
2019-06-27T11:33:35.283Z,94331.03
2019-06-27T11:36:03.701Z,94336.08
2019-06-27T11:38:32.172Z,94332.11
2019-06-27T11:41:00.119Z,94336.72
2019-06-27T11:43:28.713Z,94335.94
2019-06-27T11:45:57.320Z,94334.25
2019-06-27T11:48:25.634Z,94331.65
2019-06-27T11:50:54.208Z,94332.21
2019-06-27T11:53:22.518Z,94331.33
2019-06-27T11:55:50.864Z,94328.31
2019-06-27T11:58:19.503Z,94333.66
2019-06-27T12:00:47.832Z,94333.14
2019-06-27T12:03:15.721Z,94325.14
2019-06-27T12:05:43.997Z,94327.80
2019-06-27T12:08:12.672Z,94329.59
2019-06-27T12:10:40.961Z,94326.94
2019-06-27T12:13:09.172Z,94328.88
2019-06-27T12:15:37.432Z,94317.26
2019-06-27T12:18:05.602Z,94310.92
2019-06-27T12:20:33.168Z,94313.10
2019-06-27T12:23:01.041Z,94307.63
2019-06-27T12:25:29.383Z,94315.95
2019-06-27T12:27:57.601Z,94316.61
2019-06-27T12:30:26.364Z,94314.93
2019-06-27T12:32:54.907Z,94312.25
2019-06-27T12:35:23.164Z,94307.59
2019-06-27T12:37:51.134Z,94303.69
2019-06-27T12:40:19.248Z,94305.42
2019-06-27T12:42:48.550Z,94304.27
2019-06-27T12:45:17.331Z,94302.95
2019-06-27T12:47:45.618Z,94305.05
2019-06-27T12:50:16.103Z,94303.03
2019-06-27T12:52:44.420Z,94295.01
2019-06-27T12:55:12.184Z,94296.36
2019-06-27T12:57:40.805Z,94292.89
2019-06-27T13:00:09.810Z,94289.67
2019-06-27T13:02:38.122Z,94283.11
2019-06-27T13:05:07.042Z,94282.69
2019-06-27T13:07:35.663Z,94286.27
2019-06-27T13:10:03.591Z,94288.36
2019-06-27T13:12:31.574Z,94284.41
2019-06-27T13:14:59.832Z,94288.19
2019-06-27T13:17:27.879Z,94282.31
2019-06-27T13:19:55.652Z,94278.65
2019-06-27T13:22:23.695Z,94272.63
2019-06-27T13:24:51.996Z,94280.44
2019-06-27T13:27:20.680Z,94272.34
2019-06-27T13:29:48.580Z,94268.70
2019-06-27T13:32:16.947Z,94274.81
2019-06-27T13:34:45.105Z,94271.06
2019-06-27T13:37:13.103Z,94266.96
2019-06-27T13:39:41.397Z,94262.37
2019-06-27T13:42:10.049Z,94255.39
2019-06-27T13:44:38.338Z,94256.68
2019-06-27T13:47:09.649Z,94250.19
2019-06-27T13:49:37.899Z,94249.14
2019-06-27T13:52:05.854Z,94250.66
2019-06-27T13:54:34.432Z,94245.07
2019-06-27T13:57:02.645Z,94250.59
2019-06-27T13:59:30.905Z,94253.39
2019-06-27T14:01:59.251Z,94251.62
2019-06-27T14:04:27.155Z,94246.36
2019-06-27T14:06:55.968Z,94244.91
2019-06-27T14:09:24.601Z,94243.62
2019-06-27T14:11:53.232Z,94234.09
2019-06-27T14:14:20.882Z,94242.06
2019-06-27T14:16:49.486Z,94243.83
2019-06-27T14:21:40.500Z,94228.34
2019-06-27T14:24:09.147Z,94235.77
2019-06-27T14:26:37.821Z,94233.19
2019-06-27T14:29:06.076Z,94222.28
2019-06-27T14:31:34.659Z,94238.51
2019-06-27T14:34:03.070Z,94233.71
2019-06-27T14:36:31.264Z,94225.43
2019-06-27T14:38:59.766Z,94222.38
2019-06-27T14:41:28.006Z,94227.08
2019-06-27T14:43:56.536Z,94219.16
2019-06-27T14:46:24.099Z,94224.86
2019-06-27T14:48:51.999Z,94224.39
2019-06-27T14:51:19.929Z,94221.91
2019-06-27T14:53:47.493Z,94216.39
2019-06-27T14:56:16.149Z,94224.09
2019-06-27T14:58:44.449Z,94212.16
2019-06-27T15:01:12.581Z,94207.89
2019-06-27T15:03:41.220Z,94202.91
2019-06-27T15:06:12.231Z,94206.83
2019-06-27T15:08:39.634Z,94204.24
2019-06-27T15:11:07.515Z,94202.63
2019-06-27T15:13:36.012Z,94204.62
2019-06-27T15:16:11.708Z,94198.60
2019-06-27T15:18:34.699Z,94192.99
2019-06-27T15:21:03.334Z,94198.91
2019-06-27T15:23:31.809Z,94190.33
2019-06-27T15:26:00.128Z,94191.80
2019-06-27T15:28:28.365Z,94192.89
2019-06-27T15:30:56.638Z,94188.80
2019-06-27T15:33:25.353Z,94186.78
2019-06-27T15:35:53.639Z,94192.51
2019-06-27T15:38:22.417Z,94188.03
2019-06-27T15:40:50.801Z,94188.92
2019-06-27T15:43:19.017Z,94196.31
2019-06-27T15:45:47.404Z,94188.16
2019-06-27T15:48:15.946Z,94193.58
2019-06-27T15:50:44.524Z,94188.39
2019-06-27T15:53:12.741Z,94191.00
2019-06-27T15:55:40.610Z,94185.11
2019-06-27T15:58:08.199Z,94181.56
2019-06-27T16:00:39.323Z,94182.45
2019-06-27T16:03:06.759Z,94176.50
2019-06-27T16:05:35.086Z,94177.45
2019-06-27T16:08:03.881Z,94176.78
2019-06-27T16:10:32.105Z,94177.70
2019-06-27T16:13:02.723Z,94170.99
2019-06-27T16:15:31.134Z,94169.38
2019-06-27T16:17:59.813Z,94170.93
2019-06-27T16:20:27.620Z,94171.80
2019-06-27T16:22:55.887Z,94172.77
2019-06-27T16:25:24.390Z,94170.52
2019-06-27T16:27:53.030Z,94167.22
2019-06-27T16:30:21.559Z,94168.72
2019-06-27T16:32:49.504Z,94172.52
2019-06-27T16:35:18.025Z,94162.09
2019-06-27T16:37:46.008Z,94164.10
2019-06-27T16:40:14.252Z,94166.45
2019-06-27T16:42:42.789Z,94170.73
2019-06-27T16:45:11.060Z,94172.08
2019-06-27T16:47:39.403Z,94166.27
2019-06-27T16:50:07.685Z,94171.23
2019-06-27T16:52:36.274Z,94163.78
2019-06-27T16:55:05.385Z,94163.11
2019-06-27T16:57:33.361Z,94163.45
2019-06-27T17:00:01.638Z,94162.91
2019-06-27T17:02:29.521Z,94169.35
2019-06-27T17:04:58.153Z,94162.56
2019-06-27T17:07:26.422Z,94165.53
2019-06-27T17:09:55.058Z,94163.70
2019-06-27T17:12:23.950Z,94168.00
2019-06-27T17:14:52.246Z,94165.50
2019-06-27T17:17:20.874Z,94161.48
2019-06-27T17:19:49.440Z,94162.31
2019-06-27T17:22:18.120Z,94161.95
2019-06-27T17:24:46.418Z,94163.84
2019-06-27T17:27:15.026Z,94164.91
2019-06-27T17:29:43.679Z,94166.80
2019-06-27T17:32:12.413Z,94167.17
2019-06-27T17:34:40.803Z,94164.41
2019-06-27T17:37:09.141Z,94172.69
2019-06-27T17:39:37.457Z,94166.77
2019-06-27T17:42:05.835Z,94172.48
2019-06-27T17:44:33.749Z,94169.89
2019-06-27T17:47:02.369Z,94169.27
2019-06-27T17:49:30.641Z,94169.16
2019-06-27T17:51:59.247Z,94168.42
2019-06-27T17:54:27.864Z,94165.30
2019-06-27T17:56:55.821Z,94174.49
2019-06-27T17:59:23.463Z,94170.30
2019-06-27T18:01:51.665Z,94165.63
2019-06-27T18:04:20.138Z,94172.33
2019-06-27T18:06:48.945Z,94168.13
2019-06-27T18:09:17.640Z,94175.16
2019-06-27T18:11:45.915Z,94170.28
2019-06-27T18:14:14.241Z,94169.39
2019-06-27T18:16:42.831Z,94169.13
2019-06-27T18:19:10.661Z,94170.44
2019-06-27T18:21:39.046Z,94170.28
2019-06-27T18:24:07.829Z,94172.84
2019-06-27T18:26:36.109Z,94170.05
2019-06-27T18:29:04.632Z,94175.12
2019-06-27T18:31:32.873Z,94171.86
2019-06-27T18:34:01.267Z,94176.88
2019-06-27T18:36:29.796Z,94180.97
2019-06-27T18:38:57.638Z,94178.95
2019-06-27T18:41:26.331Z,94182.86
2019-06-27T18:43:54.936Z,94183.91
2019-06-27T18:46:23.482Z,94182.41
2019-06-27T18:48:52.277Z,94189.95
2019-06-27T18:51:20.561Z,94190.14
2019-06-27T18:53:48.542Z,94188.86
2019-06-27T18:56:16.392Z,94180.59
2019-06-27T18:58:45.038Z,94177.31
2019-06-27T19:01:13.305Z,94188.24
2019-06-27T19:03:41.912Z,94182.67
2019-06-27T19:06:10.479Z,94189.17
2019-06-27T19:08:38.335Z,94181.66
2019-06-27T19:11:05.906Z,94190.98
2019-06-27T19:13:34.313Z,94192.21
2019-06-27T19:16:03.049Z,94189.48
2019-06-27T19:18:49.084Z,94188.42
2019-06-27T19:21:22.485Z,94194.86
2019-06-27T19:23:59.251Z,94192.73
2019-06-27T19:26:27.837Z,94189.67
2019-06-27T19:28:56.526Z,94198.14
2019-06-27T19:31:25.221Z,94199.26
2019-06-27T19:33:53.297Z,94207.13
2019-06-27T19:36:21.167Z,94198.59
2019-06-27T19:38:49.750Z,94196.70
2019-06-27T19:41:18.184Z,94206.46
2019-06-27T19:43:46.858Z,94203.39
2019-06-27T19:46:14.724Z,94208.53
2019-06-27T19:48:45.616Z,94207.30
2019-06-27T19:51:13.125Z,94212.56
2019-06-27T19:53:41.327Z,94217.32
2019-06-27T19:56:09.203Z,94222.91
2019-06-27T19:58:37.805Z,94229.09
2019-06-27T20:01:06.145Z,94228.64
2019-06-27T20:03:34.838Z,94229.84
2019-06-27T20:06:03.335Z,94234.22
2019-06-27T20:08:31.290Z,94235.55
2019-06-27T20:10:59.467Z,94238.39
2019-06-27T20:13:27.062Z,94241.97
2019-06-27T20:15:55.716Z,94244.58
2019-06-27T20:18:23.792Z,94244.58
2019-06-27T20:20:51.985Z,94245.52
2019-06-27T20:23:20.269Z,94244.68
2019-06-27T20:25:48.954Z,94245.27
2019-06-27T20:28:17.644Z,94246.44
2019-06-27T20:30:45.940Z,94248.07
2019-06-27T20:33:13.907Z,94252.45
2019-06-27T20:35:42.557Z,94254.70
2019-06-27T20:38:11.096Z,94250.53
2019-06-27T20:40:39.370Z,94251.20
2019-06-27T20:43:07.861Z,94263.91
2019-06-27T20:45:36.338Z,94261.52
2019-06-27T20:48:05.034Z,94267.77
2019-06-27T20:50:33.271Z,94271.05
2019-06-27T20:53:01.637Z,94275.19
2019-06-27T20:55:29.938Z,94273.33
2019-06-27T20:57:58.201Z,94278.69
2019-06-27T21:00:26.473Z,94284.47
2019-06-27T21:02:54.348Z,94291.52
2019-06-27T21:05:22.289Z,94285.02
2019-06-27T21:07:50.581Z,94287.34
2019-06-27T21:10:19.424Z,94290.53
2019-06-27T21:12:47.245Z,94286.82
2019-06-27T21:15:15.408Z,94286.33
2019-06-27T21:17:43.703Z,94286.06
2019-06-27T21:20:11.946Z,94288.34
2019-06-27T21:22:40.469Z,94293.16
2019-06-27T21:25:09.314Z,94291.88
2019-06-27T21:27:37.185Z,94292.69
2019-06-27T21:30:06.500Z,94289.66
2019-06-27T21:32:35.167Z,94293.30
2019-06-27T21:35:03.110Z,94297.78
2019-06-27T21:37:31.641Z,94302.84
2019-06-27T21:40:00.292Z,94302.31
2019-06-27T21:42:28.979Z,94301.33
2019-06-27T21:44:56.842Z,94302.92
2019-06-27T21:47:25.427Z,94303.59
2019-06-27T21:49:53.314Z,94302.68
2019-06-27T21:52:21.175Z,94303.66
2019-06-27T21:54:49.097Z,94295.75
2019-06-27T21:57:17.239Z,94307.02
2019-06-27T21:59:45.391Z,94302.56
2019-06-27T22:02:13.949Z,94301.58
2019-06-27T22:04:42.194Z,94301.51
2019-06-27T22:07:10.459Z,94297.17
2019-06-27T22:09:38.675Z,94303.69
2019-06-27T22:12:07.262Z,94290.97
2019-06-27T22:14:35.435Z,94292.36
2019-06-27T22:17:03.702Z,94291.05
2019-06-27T22:19:32.291Z,94293.78
2019-06-27T22:22:00.807Z,94290.16
2019-06-27T22:24:28.659Z,94283.36
2019-06-27T22:26:56.182Z,94280.59
2019-06-27T22:29:24.501Z,94284.15
2019-06-27T22:31:52.368Z,94282.22
2019-06-27T22:34:20.517Z,94276.45
2019-06-27T22:36:48.718Z,94278.34
2019-06-27T22:39:40.519Z,94275.82
2019-06-27T22:42:23.052Z,94274.37
2019-06-27T22:45:09.661Z,94275.51
2019-06-27T22:47:55.957Z,94271.33
2019-06-27T22:50:42.028Z,94272.31
2019-06-27T22:53:14.759Z,94264.92
2019-06-27T22:55:43.407Z,94263.66
2019-06-27T22:58:12.034Z,94265.45
2019-06-27T23:00:39.856Z,94265.37
2019-06-27T23:03:07.330Z,94269.77
2019-06-27T23:05:36.035Z,94262.77
2019-06-27T23:08:04.214Z,94254.84
2019-06-27T23:10:32.484Z,94255.41
2019-06-27T23:13:00.872Z,94260.86
2019-06-27T23:15:29.043Z,94256.06
2019-06-27T23:17:57.659Z,94261.13
2019-06-27T23:20:26.303Z,94256.33
2019-06-27T23:22:54.126Z,94262.06
2019-06-27T23:25:21.978Z,94257.65
2019-06-27T23:27:50.262Z,94252.72
2019-06-27T23:30:18.203Z,94258.28
2019-06-27T23:32:46.419Z,94262.08
2019-06-27T23:35:14.392Z,94260.55
2019-06-27T23:37:41.943Z,94265.27
2019-06-27T23:40:14.469Z,94262.86
2019-06-27T23:42:40.777Z,94264.82
2019-06-27T23:45:09.977Z,94264.69
2019-06-27T23:47:38.560Z,94266.98
2019-06-27T23:50:07.675Z,94263.44
2019-06-27T23:52:35.955Z,94258.24
2019-06-27T23:55:04.328Z,94259.17
2019-06-27T23:57:31.825Z,94257.58
